sensor_id;sensor_type;location;lat;lon;timestamp;temperature;humidity
2621;DHT22;1320;48.128;11.592;2023-04-28T00:01:41;11.00;99.90
2621;DHT22;1320;48.128;11.592;2023-04-28T00:04:07;11.00;99.90
2621;DHT22;1320;48.128;11.592;2023-04-28T00:06:33;11.00;99.90
2621;DHT22;1320;48.128;11.592;2023-04-28T00:08:59;11.00;99.90
2621;DHT22;1320;48.128;11.592;2023-04-28T00:11:24;11.00;99.90
2621;DHT22;1320;48.128;11.592;2023-04-28T00:13:50;11.00;99.90
2621;DHT22;1320;48.128;11.592;2023-04-28T00:16:16;11.00;99.90
2621;DHT22;1320;48.128;11.592;2023-04-28T00:18:41;11.00;99.90
2621;DHT22;1320;48.128;11.592;2023-04-28T00:21:07;11.00;99.90
2621;DHT22;1320;48.128;11.592;2023-04-28T00:23:33;11.00;99.90
2621;DHT22;1320;48.128;11.592;2023-04-28T00:25:59;11.10;99.90
2621;DHT22;1320;48.128;11.592;2023-04-28T00:28:25;11.10;99.90
2621;DHT22;1320;48.128;11.592;2023-04-28T00:30:51;11.10;99.90
2621;DHT22;1320;48.128;11.592;2023-04-28T00:33:16;11.10;99.90
2621;DHT22;1320;48.128;11.592;2023-04-28T00:35:42;11.10;99.90
2621;DHT22;1320;48.128;11.592;2023-04-28T00:38:08;11.10;99.90
2621;DHT22;1320;48.128;11.592;2023-04-28T00:40:38;11.10;99.90
2621;DHT22;1320;48.128;11.592;2023-04-28T00:43:04;11.10;99.90
2621;DHT22;1320;48.128;11.592;2023-04-28T00:45:30;11.10;99.90
2621;DHT22;1320;48.128;11.592;2023-04-28T00:47:56;11.10;99.90
2621;DHT22;1320;48.128;11.592;2023-04-28T00:50:23;11.10;99.90
2621;DHT22;1320;48.128;11.592;2023-04-28T00:52:50;11.10;99.90
2621;DHT22;1320;48.128;11.592;2023-04-28T00:55:17;11.10;99.90
2621;DHT22;1320;48.128;11.592;2023-04-28T00:57:43;11.10;99.90
2621;DHT22;1320;48.128;11.592;2023-04-28T01:00:09;11.10;99.90
2621;DHT22;1320;48.128;11.592;2023-04-28T01:02:35;11.20;99.90
2621;DHT22;1320;48.128;11.592;2023-04-28T01:05:01;11.20;99.90
2621;DHT22;1320;48.128;11.592;2023-04-28T01:07:27;11.20;99.90
2621;DHT22;1320;48.128;11.592;2023-04-28T01:09:53;11.20;99.90
2621;DHT22;1320;48.128;11.592;2023-04-28T01:12:19;11.20;99.90
2621;DHT22;1320;48.128;11.592;2023-04-28T01:14:45;11.20;99.90
2621;DHT22;1320;48.128;11.592;2023-04-28T01:17:11;11.20;99.90
2621;DHT22;1320;48.128;11.592;2023-04-28T01:19:37;11.20;99.90
2621;DHT22;1320;48.128;11.592;2023-04-28T01:22:03;11.20;99.90
2621;DHT22;1320;48.128;11.592;2023-04-28T01:24:35;11.20;99.90
2621;DHT22;1320;48.128;11.592;2023-04-28T01:27:00;11.10;99.90
2621;DHT22;1320;48.128;11.592;2023-04-28T01:29:27;11.10;99.90
2621;DHT22;1320;48.128;11.592;2023-04-28T01:31:53;11.10;99.90
2621;DHT22;1320;48.128;11.592;2023-04-28T01:34:18;11.10;99.90
2621;DHT22;1320;48.128;11.592;2023-04-28T01:36:44;11.10;99.90
2621;DHT22;1320;48.128;11.592;2023-04-28T01:39:10;11.10;99.90
2621;DHT22;1320;48.128;11.592;2023-04-28T01:41:36;11.10;99.90
2621;DHT22;1320;48.128;11.592;2023-04-28T01:44:01;11.20;99.90
2621;DHT22;1320;48.128;11.592;2023-04-28T01:46:28;11.10;99.90
2621;DHT22;1320;48.128;11.592;2023-04-28T01:48:54;11.10;99.90
2621;DHT22;1320;48.128;11.592;2023-04-28T01:51:19;11.10;99.90
2621;DHT22;1320;48.128;11.592;2023-04-28T01:53:45;11.20;99.90
2621;DHT22;1320;48.128;11.592;2023-04-28T01:56:10;11.20;99.90
2621;DHT22;1320;48.128;11.592;2023-04-28T01:58:36;11.30;99.90
2621;DHT22;1320;48.128;11.592;2023-04-28T02:01:02;11.30;99.90
2621;DHT22;1320;48.128;11.592;2023-04-28T02:03:28;11.30;99.90
2621;DHT22;1320;48.128;11.592;2023-04-28T02:05:53;11.30;99.90
2621;DHT22;1320;48.128;11.592;2023-04-28T02:08:19;11.40;99.90
2621;DHT22;1320;48.128;11.592;2023-04-28T02:10:45;11.40;99.90
2621;DHT22;1320;48.128;11.592;2023-04-28T02:13:11;11.40;99.90
2621;DHT22;1320;48.128;11.592;2023-04-28T02:15:40;11.50;99.90
2621;DHT22;1320;48.128;11.592;2023-04-28T02:18:07;11.50;99.90
2621;DHT22;1320;48.128;11.592;2023-04-28T02:20:32;11.50;99.90
2621;DHT22;1320;48.128;11.592;2023-04-28T02:22:58;11.50;99.90
2621;DHT22;1320;48.128;11.592;2023-04-28T02:25:24;11.50;99.90
2621;DHT22;1320;48.128;11.592;2023-04-28T02:27:49;11.50;99.90
2621;DHT22;1320;48.128;11.592;2023-04-28T02:30:15;11.50;99.90
2621;DHT22;1320;48.128;11.592;2023-04-28T02:32:41;11.50;99.90
2621;DHT22;1320;48.128;11.592;2023-04-28T02:35:07;11.50;99.90
2621;DHT22;1320;48.128;11.592;2023-04-28T02:37:32;11.50;99.90
2621;DHT22;1320;48.128;11.592;2023-04-28T02:39:58;11.40;99.90
2621;DHT22;1320;48.128;11.592;2023-04-28T02:42:24;11.40;99.90
2621;DHT22;1320;48.128;11.592;2023-04-28T02:44:49;11.40;99.90
2621;DHT22;1320;48.128;11.592;2023-04-28T02:47:15;11.40;99.90
2621;DHT22;1320;48.128;11.592;2023-04-28T02:49:41;11.30;99.90
2621;DHT22;1320;48.128;11.592;2023-04-28T02:52:06;11.30;99.90
2621;DHT22;1320;48.128;11.592;2023-04-28T02:54:32;11.30;99.90
2621;DHT22;1320;48.128;11.592;2023-04-28T02:56:59;11.30;99.90
2621;DHT22;1320;48.128;11.592;2023-04-28T02:59:25;11.30;99.90
2621;DHT22;1320;48.128;11.592;2023-04-28T03:01:51;11.30;99.90
2621;DHT22;1320;48.128;11.592;2023-04-28T03:04:17;11.30;99.90
2621;DHT22;1320;48.128;11.592;2023-04-28T03:06:43;11.10;99.90
2621;DHT22;1320;48.128;11.592;2023-04-28T03:09:10;11.10;99.90
2621;DHT22;1320;48.128;11.592;2023-04-28T03:11:36;11.10;99.90
2621;DHT22;1320;48.128;11.592;2023-04-28T03:14:02;11.10;99.90
2621;DHT22;1320;48.128;11.592;2023-04-28T03:16:28;11.10;99.90
2621;DHT22;1320;48.128;11.592;2023-04-28T03:18:54;11.10;99.90
2621;DHT22;1320;48.128;11.592;2023-04-28T03:21:19;11.10;99.90
2621;DHT22;1320;48.128;11.592;2023-04-28T03:23:45;11.10;99.90
2621;DHT22;1320;48.128;11.592;2023-04-28T03:26:11;11.20;99.90
2621;DHT22;1320;48.128;11.592;2023-04-28T03:28:36;11.20;99.90
2621;DHT22;1320;48.128;11.592;2023-04-28T03:31:02;11.20;99.90
2621;DHT22;1320;48.128;11.592;2023-04-28T03:33:28;11.20;99.90
2621;DHT22;1320;48.128;11.592;2023-04-28T03:35:53;11.20;99.90
2621;DHT22;1320;48.128;11.592;2023-04-28T03:38:19;11.20;99.90
2621;DHT22;1320;48.128;11.592;2023-04-28T03:40:45;11.20;99.90
2621;DHT22;1320;48.128;11.592;2023-04-28T03:43:11;11.30;99.90
2621;DHT22;1320;48.128;11.592;2023-04-28T03:45:37;11.30;99.90
2621;DHT22;1320;48.128;11.592;2023-04-28T03:48:03;11.30;99.90
2621;DHT22;1320;48.128;11.592;2023-04-28T03:50:29;11.20;99.90
2621;DHT22;1320;48.128;11.592;2023-04-28T03:52:54;11.20;99.90
2621;DHT22;1320;48.128;11.592;2023-04-28T03:55:20;11.20;99.90
2621;DHT22;1320;48.128;11.592;2023-04-28T03:57:46;11.20;99.90
2621;DHT22;1320;48.128;11.592;2023-04-28T04:00:12;11.10;99.90
2621;DHT22;1320;48.128;11.592;2023-04-28T04:02:38;11.10;99.90
2621;DHT22;1320;48.128;11.592;2023-04-28T04:05:04;11.10;99.90
2621;DHT22;1320;48.128;11.592;2023-04-28T04:07:29;11.10;99.90
2621;DHT22;1320;48.128;11.592;2023-04-28T04:09:55;11.10;99.90
2621;DHT22;1320;48.128;11.592;2023-04-28T04:12:20;11.20;99.90
2621;DHT22;1320;48.128;11.592;2023-04-28T04:14:46;11.20;99.90
2621;DHT22;1320;48.128;11.592;2023-04-28T04:17:12;11.20;99.90
2621;DHT22;1320;48.128;11.592;2023-04-28T04:19:37;11.10;99.90
2621;DHT22;1320;48.128;11.592;2023-04-28T04:22:03;11.10;99.90
2621;DHT22;1320;48.128;11.592;2023-04-28T04:24:29;11.10;99.90
2621;DHT22;1320;48.128;11.592;2023-04-28T04:26:54;11.20;99.90
2621;DHT22;1320;48.128;11.592;2023-04-28T04:29:20;11.30;99.90
2621;DHT22;1320;48.128;11.592;2023-04-28T04:31:46;11.30;99.90
2621;DHT22;1320;48.128;11.592;2023-04-28T04:34:11;11.40;99.90
2621;DHT22;1320;48.128;11.592;2023-04-28T04:36:37;11.50;99.90
2621;DHT22;1320;48.128;11.592;2023-04-28T04:39:03;11.60;99.90
2621;DHT22;1320;48.128;11.592;2023-04-28T04:41:28;11.70;99.90
2621;DHT22;1320;48.128;11.592;2023-04-28T04:43:54;11.80;99.90
2621;DHT22;1320;48.128;11.592;2023-04-28T04:46:20;11.80;99.90
2621;DHT22;1320;48.128;11.592;2023-04-28T04:48:46;11.90;99.90
2621;DHT22;1320;48.128;11.592;2023-04-28T04:51:11;11.90;99.90
2621;DHT22;1320;48.128;11.592;2023-04-28T04:53:37;11.90;99.90
2621;DHT22;1320;48.128;11.592;2023-04-28T04:56:03;11.90;99.90
2621;DHT22;1320;48.128;11.592;2023-04-28T04:58:29;12.00;99.90
2621;DHT22;1320;48.128;11.592;2023-04-28T05:00:55;12.10;99.90
2621;DHT22;1320;48.128;11.592;2023-04-28T05:03:20;12.10;99.90
2621;DHT22;1320;48.128;11.592;2023-04-28T05:05:46;12.20;99.90
2621;DHT22;1320;48.128;11.592;2023-04-28T05:08:13;12.20;99.90
2621;DHT22;1320;48.128;11.592;2023-04-28T05:10:39;12.20;99.90
2621;DHT22;1320;48.128;11.592;2023-04-28T05:13:05;12.30;99.90
2621;DHT22;1320;48.128;11.592;2023-04-28T05:15:30;12.30;99.90
2621;DHT22;1320;48.128;11.592;2023-04-28T05:17:56;12.30;99.90
2621;DHT22;1320;48.128;11.592;2023-04-28T05:20:22;12.40;99.90
2621;DHT22;1320;48.128;11.592;2023-04-28T05:22:48;12.40;99.90
2621;DHT22;1320;48.128;11.592;2023-04-28T05:25:14;12.40;99.90
2621;DHT22;1320;48.128;11.592;2023-04-28T05:27:40;12.40;99.90
2621;DHT22;1320;48.128;11.592;2023-04-28T05:30:07;12.40;99.90
2621;DHT22;1320;48.128;11.592;2023-04-28T05:32:34;12.40;99.90
2621;DHT22;1320;48.128;11.592;2023-04-28T05:35:00;12.40;99.90
2621;DHT22;1320;48.128;11.592;2023-04-28T05:37:26;12.40;99.90
2621;DHT22;1320;48.128;11.592;2023-04-28T05:39:52;12.40;99.90
2621;DHT22;1320;48.128;11.592;2023-04-28T05:42:18;12.40;99.90
2621;DHT22;1320;48.128;11.592;2023-04-28T05:44:44;12.50;99.90
2621;DHT22;1320;48.128;11.592;2023-04-28T05:47:10;12.40;99.90
2621;DHT22;1320;48.128;11.592;2023-04-28T05:49:36;12.40;99.90
2621;DHT22;1320;48.128;11.592;2023-04-28T05:52:05;12.40;99.90
2621;DHT22;1320;48.128;11.592;2023-04-28T05:54:30;12.40;99.90
2621;DHT22;1320;48.128;11.592;2023-04-28T05:56:58;12.40;99.90
2621;DHT22;1320;48.128;11.592;2023-04-28T05:59:24;12.50;99.90
2621;DHT22;1320;48.128;11.592;2023-04-28T06:01:50;12.50;99.90
2621;DHT22;1320;48.128;11.592;2023-04-28T06:04:18;12.40;99.90
2621;DHT22;1320;48.128;11.592;2023-04-28T06:06:43;12.40;99.90
2621;DHT22;1320;48.128;11.592;2023-04-28T06:09:09;12.40;99.90
2621;DHT22;1320;48.128;11.592;2023-04-28T06:11:35;12.40;99.90
2621;DHT22;1320;48.128;11.592;2023-04-28T06:14:00;12.40;99.90
2621;DHT22;1320;48.128;11.592;2023-04-28T06:16:27;12.30;99.90
2621;DHT22;1320;48.128;11.592;2023-04-28T06:18:52;12.30;99.90
2621;DHT22;1320;48.128;11.592;2023-04-28T06:21:18;12.30;99.90
2621;DHT22;1320;48.128;11.592;2023-04-28T06:23:45;12.30;99.90
2621;DHT22;1320;48.128;11.592;2023-04-28T06:26:11;12.30;99.90
2621;DHT22;1320;48.128;11.592;2023-04-28T06:28:37;12.30;99.90
2621;DHT22;1320;48.128;11.592;2023-04-28T06:31:03;12.30;99.90
2621;DHT22;1320;48.128;11.592;2023-04-28T06:33:28;12.30;99.90
2621;DHT22;1320;48.128;11.592;2023-04-28T06:35:54;12.40;99.90
2621;DHT22;1320;48.128;11.592;2023-04-28T06:38:20;12.50;99.90
2621;DHT22;1320;48.128;11.592;2023-04-28T06:40:45;12.50;99.90
2621;DHT22;1320;48.128;11.592;2023-04-28T06:43:11;12.50;99.90
2621;DHT22;1320;48.128;11.592;2023-04-28T06:45:37;12.60;99.90
2621;DHT22;1320;48.128;11.592;2023-04-28T06:48:04;12.70;99.90
2621;DHT22;1320;48.128;11.592;2023-04-28T06:50:29;12.70;99.90
2621;DHT22;1320;48.128;11.592;2023-04-28T06:52:55;12.80;99.90
2621;DHT22;1320;48.128;11.592;2023-04-28T06:55:21;12.80;99.90
2621;DHT22;1320;48.128;11.592;2023-04-28T06:57:48;12.90;99.90
2621;DHT22;1320;48.128;11.592;2023-04-28T07:00:14;13.00;99.90
2621;DHT22;1320;48.128;11.592;2023-04-28T07:02:39;13.10;99.90
2621;DHT22;1320;48.128;11.592;2023-04-28T07:05:05;13.30;99.90
2621;DHT22;1320;48.128;11.592;2023-04-28T07:07:31;13.40;99.90
2621;DHT22;1320;48.128;11.592;2023-04-28T07:09:57;13.50;99.90
2621;DHT22;1320;48.128;11.592;2023-04-28T07:12:23;13.60;99.90
2621;DHT22;1320;48.128;11.592;2023-04-28T07:14:49;13.70;99.90
2621;DHT22;1320;48.128;11.592;2023-04-28T07:17:15;13.80;99.90
2621;DHT22;1320;48.128;11.592;2023-04-28T07:19:41;13.90;99.90
2621;DHT22;1320;48.128;11.592;2023-04-28T07:22:06;13.90;99.90
2621;DHT22;1320;48.128;11.592;2023-04-28T07:24:32;13.90;99.90
2621;DHT22;1320;48.128;11.592;2023-04-28T07:26:58;14.00;99.90
2621;DHT22;1320;48.128;11.592;2023-04-28T07:29:23;14.00;99.90
2621;DHT22;1320;48.128;11.592;2023-04-28T07:31:49;14.10;99.90
2621;DHT22;1320;48.128;11.592;2023-04-28T07:34:15;14.10;99.90
2621;DHT22;1320;48.128;11.592;2023-04-28T07:36:41;14.10;99.90
2621;DHT22;1320;48.128;11.592;2023-04-28T07:39:07;14.00;99.90
2621;DHT22;1320;48.128;11.592;2023-04-28T07:41:37;14.10;99.90
2621;DHT22;1320;48.128;11.592;2023-04-28T07:44:04;14.10;99.90
2621;DHT22;1320;48.128;11.592;2023-04-28T07:46:29;14.10;99.90
2621;DHT22;1320;48.128;11.592;2023-04-28T07:48:55;14.10;99.90
2621;DHT22;1320;48.128;11.592;2023-04-28T07:51:21;14.10;99.90
2621;DHT22;1320;48.128;11.592;2023-04-28T07:53:47;14.20;99.90
2621;DHT22;1320;48.128;11.592;2023-04-28T07:56:12;14.20;99.90
2621;DHT22;1320;48.128;11.592;2023-04-28T07:58:38;14.30;99.90
2621;DHT22;1320;48.128;11.592;2023-04-28T08:01:04;14.20;99.90
2621;DHT22;1320;48.128;11.592;2023-04-28T08:03:30;14.20;99.90
2621;DHT22;1320;48.128;11.592;2023-04-28T08:05:55;14.20;99.90
2621;DHT22;1320;48.128;11.592;2023-04-28T08:08:22;14.20;99.90
2621;DHT22;1320;48.128;11.592;2023-04-28T08:10:48;14.30;99.90
2621;DHT22;1320;48.128;11.592;2023-04-28T08:13:15;14.30;99.90
2621;DHT22;1320;48.128;11.592;2023-04-28T08:15:41;14.20;99.90
2621;DHT22;1320;48.128;11.592;2023-04-28T08:18:07;14.20;99.90
2621;DHT22;1320;48.128;11.592;2023-04-28T08:20:34;14.20;99.90
2621;DHT22;1320;48.128;11.592;2023-04-28T08:22:59;14.20;99.90
2621;DHT22;1320;48.128;11.592;2023-04-28T08:25:25;14.20;99.90
2621;DHT22;1320;48.128;11.592;2023-04-28T08:27:51;14.20;99.90
2621;DHT22;1320;48.128;11.592;2023-04-28T08:30:17;14.10;99.90
2621;DHT22;1320;48.128;11.592;2023-04-28T08:32:43;14.10;99.90
2621;DHT22;1320;48.128;11.592;2023-04-28T08:35:08;14.00;99.90
2621;DHT22;1320;48.128;11.592;2023-04-28T08:37:34;14.00;99.90
2621;DHT22;1320;48.128;11.592;2023-04-28T08:40:01;14.00;99.90
2621;DHT22;1320;48.128;11.592;2023-04-28T08:42:30;13.90;99.90
2621;DHT22;1320;48.128;11.592;2023-04-28T08:44:57;13.80;99.90
2621;DHT22;1320;48.128;11.592;2023-04-28T08:47:37;13.80;99.90
2621;DHT22;1320;48.128;11.592;2023-04-28T08:50:04;13.70;99.90
2621;DHT22;1320;48.128;11.592;2023-04-28T08:52:30;13.70;99.90
2621;DHT22;1320;48.128;11.592;2023-04-28T08:55:01;13.70;99.90
2621;DHT22;1320;48.128;11.592;2023-04-28T08:57:43;13.70;99.90
2621;DHT22;1320;48.128;11.592;2023-04-28T09:00:10;13.80;99.90
2621;DHT22;1320;48.128;11.592;2023-04-28T09:02:36;13.80;99.90
2621;DHT22;1320;48.128;11.592;2023-04-28T09:05:12;13.90;99.90
2621;DHT22;1320;48.128;11.592;2023-04-28T09:07:38;13.90;99.90
2621;DHT22;1320;48.128;11.592;2023-04-28T09:10:23;13.90;99.90
2621;DHT22;1320;48.128;11.592;2023-04-28T09:12:53;13.90;99.90
2621;DHT22;1320;48.128;11.592;2023-04-28T09:17:57;14.10;99.90
2621;DHT22;1320;48.128;11.592;2023-04-28T09:20:26;14.20;99.90
2621;DHT22;1320;48.128;11.592;2023-04-28T09:22:54;14.20;99.90
2621;DHT22;1320;48.128;11.592;2023-04-28T09:25:21;14.20;99.90
2621;DHT22;1320;48.128;11.592;2023-04-28T09:27:48;14.20;99.90
2621;DHT22;1320;48.128;11.592;2023-04-28T09:30:14;14.30;99.90
2621;DHT22;1320;48.128;11.592;2023-04-28T09:32:40;14.20;99.90
2621;DHT22;1320;48.128;11.592;2023-04-28T09:35:06;14.10;99.90
2621;DHT22;1320;48.128;11.592;2023-04-28T09:37:33;14.10;99.90
2621;DHT22;1320;48.128;11.592;2023-04-28T09:40:17;14.00;99.90
2621;DHT22;1320;48.128;11.592;2023-04-28T09:42:43;13.90;99.90
2621;DHT22;1320;48.128;11.592;2023-04-28T09:45:10;13.90;99.90
2621;DHT22;1320;48.128;11.592;2023-04-28T09:47:44;13.80;99.90
2621;DHT22;1320;48.128;11.592;2023-04-28T09:50:13;13.70;99.90
2621;DHT22;1320;48.128;11.592;2023-04-28T09:52:44;13.60;99.90
2621;DHT22;1320;48.128;11.592;2023-04-28T09:55:11;13.50;99.90
2621;DHT22;1320;48.128;11.592;2023-04-28T09:57:38;13.40;99.90
2621;DHT22;1320;48.128;11.592;2023-04-28T10:00:05;13.20;99.90
2621;DHT22;1320;48.128;11.592;2023-04-28T10:02:35;13.20;99.90
2621;DHT22;1320;48.128;11.592;2023-04-28T10:05:00;13.10;99.90
2621;DHT22;1320;48.128;11.592;2023-04-28T10:07:27;13.10;99.90
2621;DHT22;1320;48.128;11.592;2023-04-28T10:09:55;13.20;99.90
2621;DHT22;1320;48.128;11.592;2023-04-28T10:12:21;13.20;99.90
2621;DHT22;1320;48.128;11.592;2023-04-28T10:14:48;13.20;99.90
2621;DHT22;1320;48.128;11.592;2023-04-28T10:17:20;13.20;99.90
2621;DHT22;1320;48.128;11.592;2023-04-28T10:19:48;13.10;99.90
2621;DHT22;1320;48.128;11.592;2023-04-28T10:27:30;13.10;99.90
2621;DHT22;1320;48.128;11.592;2023-04-28T10:30:13;13.10;99.90
2621;DHT22;1320;48.128;11.592;2023-04-28T10:32:39;13.10;99.90
2621;DHT22;1320;48.128;11.592;2023-04-28T10:38:03;13.10;99.90
2621;DHT22;1320;48.128;11.592;2023-04-28T10:40:37;13.20;99.90
2621;DHT22;1320;48.128;11.592;2023-04-28T10:43:04;13.20;99.90
2621;DHT22;1320;48.128;11.592;2023-04-28T10:48:59;13.20;99.90
2621;DHT22;1320;48.128;11.592;2023-04-28T10:56:21;13.10;99.90
2621;DHT22;1320;48.128;11.592;2023-04-28T10:58:50;13.10;99.90
2621;DHT22;1320;48.128;11.592;2023-04-28T11:03:54;13.00;99.90
2621;DHT22;1320;48.128;11.592;2023-04-28T11:07:10;13.10;99.90
2621;DHT22;1320;48.128;11.592;2023-04-28T11:12:04;13.10;99.90
2621;DHT22;1320;48.128;11.592;2023-04-28T11:14:32;13.10;99.90
2621;DHT22;1320;48.128;11.592;2023-04-28T11:19:35;13.20;99.90
2621;DHT22;1320;48.128;11.592;2023-04-28T11:22:06;13.30;99.90
2621;DHT22;1320;48.128;11.592;2023-04-28T11:24:36;13.20;99.90
2621;DHT22;1320;48.128;11.592;2023-04-28T11:27:02;13.20;99.90
2621;DHT22;1320;48.128;11.592;2023-04-28T11:29:36;13.20;99.90
2621;DHT22;1320;48.128;11.592;2023-04-28T11:32:07;13.20;99.90
2621;DHT22;1320;48.128;11.592;2023-04-28T11:34:33;13.20;99.90
2621;DHT22;1320;48.128;11.592;2023-04-28T11:36:59;13.30;99.90
2621;DHT22;1320;48.128;11.592;2023-04-28T11:39:30;13.30;99.90
2621;DHT22;1320;48.128;11.592;2023-04-28T11:41:57;13.30;99.90
2621;DHT22;1320;48.128;11.592;2023-04-28T11:44:25;13.30;99.90
2621;DHT22;1320;48.128;11.592;2023-04-28T11:46:55;13.30;99.90
2621;DHT22;1320;48.128;11.592;2023-04-28T11:49:25;13.40;99.90
2621;DHT22;1320;48.128;11.592;2023-04-28T11:51:54;13.40;99.90
2621;DHT22;1320;48.128;11.592;2023-04-28T11:54:25;13.50;99.90
2621;DHT22;1320;48.128;11.592;2023-04-28T11:56:52;13.60;99.90
2621;DHT22;1320;48.128;11.592;2023-04-28T11:59:29;13.60;99.90
2621;DHT22;1320;48.128;11.592;2023-04-28T12:02:00;13.70;99.90
2621;DHT22;1320;48.128;11.592;2023-04-28T12:04:33;13.70;99.90
2621;DHT22;1320;48.128;11.592;2023-04-28T12:09:26;13.70;99.90
2621;DHT22;1320;48.128;11.592;2023-04-28T12:12:01;13.80;99.90
2621;DHT22;1320;48.128;11.592;2023-04-28T12:14:27;13.90;99.90
2621;DHT22;1320;48.128;11.592;2023-04-28T12:16:54;13.90;99.90
2621;DHT22;1320;48.128;11.592;2023-04-28T12:19:21;14.00;99.90
2621;DHT22;1320;48.128;11.592;2023-04-28T12:22:01;14.00;99.90
2621;DHT22;1320;48.128;11.592;2023-04-28T12:24:27;14.10;99.90
2621;DHT22;1320;48.128;11.592;2023-04-28T12:26:53;14.10;99.90
2621;DHT22;1320;48.128;11.592;2023-04-28T12:29:35;14.20;99.90
2621;DHT22;1320;48.128;11.592;2023-04-28T12:32:03;14.30;99.90
2621;DHT22;1320;48.128;11.592;2023-04-28T12:34:28;14.40;99.90
2621;DHT22;1320;48.128;11.592;2023-04-28T12:36:55;14.50;99.90
2621;DHT22;1320;48.128;11.592;2023-04-28T12:39:21;14.50;99.90
2621;DHT22;1320;48.128;11.592;2023-04-28T12:41:47;14.60;99.90
2621;DHT22;1320;48.128;11.592;2023-04-28T12:44:13;14.70;99.90
2621;DHT22;1320;48.128;11.592;2023-04-28T12:46:40;14.70;99.90
2621;DHT22;1320;48.128;11.592;2023-04-28T12:49:06;14.80;99.90
2621;DHT22;1320;48.128;11.592;2023-04-28T12:51:32;14.80;99.90
2621;DHT22;1320;48.128;11.592;2023-04-28T12:54:00;14.80;99.90
2621;DHT22;1320;48.128;11.592;2023-04-28T12:56:25;14.80;99.90
2621;DHT22;1320;48.128;11.592;2023-04-28T12:58:52;14.80;99.90
2621;DHT22;1320;48.128;11.592;2023-04-28T13:01:17;14.80;99.90
2621;DHT22;1320;48.128;11.592;2023-04-28T13:03:43;14.80;99.90
2621;DHT22;1320;48.128;11.592;2023-04-28T13:06:09;14.80;99.90
2621;DHT22;1320;48.128;11.592;2023-04-28T13:08:35;14.80;99.90
2621;DHT22;1320;48.128;11.592;2023-04-28T13:11:01;14.80;99.90
2621;DHT22;1320;48.128;11.592;2023-04-28T13:13:29;14.80;99.90
2621;DHT22;1320;48.128;11.592;2023-04-28T13:15:55;14.90;99.90
2621;DHT22;1320;48.128;11.592;2023-04-28T13:18:22;14.90;99.90
2621;DHT22;1320;48.128;11.592;2023-04-28T13:20:48;15.00;99.90
2621;DHT22;1320;48.128;11.592;2023-04-28T13:23:13;15.00;99.90
2621;DHT22;1320;48.128;11.592;2023-04-28T13:25:39;15.20;99.90
2621;DHT22;1320;48.128;11.592;2023-04-28T13:28:05;15.30;99.90
2621;DHT22;1320;48.128;11.592;2023-04-28T13:30:31;15.40;99.90
2621;DHT22;1320;48.128;11.592;2023-04-28T13:32:56;15.50;99.90
2621;DHT22;1320;48.128;11.592;2023-04-28T13:35:23;15.60;99.90
2621;DHT22;1320;48.128;11.592;2023-04-28T13:37:49;15.60;99.90
2621;DHT22;1320;48.128;11.592;2023-04-28T13:40:14;15.50;99.90
2621;DHT22;1320;48.128;11.592;2023-04-28T13:42:40;15.60;99.90
2621;DHT22;1320;48.128;11.592;2023-04-28T13:45:06;15.60;99.90
2621;DHT22;1320;48.128;11.592;2023-04-28T13:47:32;15.70;99.90
2621;DHT22;1320;48.128;11.592;2023-04-28T13:49:58;15.90;99.90
2621;DHT22;1320;48.128;11.592;2023-04-28T13:52:26;16.00;99.90
2621;DHT22;1320;48.128;11.592;2023-04-28T13:54:52;16.10;99.90
2621;DHT22;1320;48.128;11.592;2023-04-28T13:57:17;16.20;99.90
2621;DHT22;1320;48.128;11.592;2023-04-28T13:59:43;16.30;99.90
2621;DHT22;1320;48.128;11.592;2023-04-28T14:02:09;16.40;99.90
2621;DHT22;1320;48.128;11.592;2023-04-28T14:04:36;16.50;99.90
2621;DHT22;1320;48.128;11.592;2023-04-28T14:07:02;16.60;99.90
2621;DHT22;1320;48.128;11.592;2023-04-28T14:09:27;16.70;99.90
2621;DHT22;1320;48.128;11.592;2023-04-28T14:11:53;16.80;99.90
2621;DHT22;1320;48.128;11.592;2023-04-28T14:14:21;16.80;99.90
2621;DHT22;1320;48.128;11.592;2023-04-28T14:16:47;16.90;99.90
2621;DHT22;1320;48.128;11.592;2023-04-28T14:19:13;17.00;99.90
2621;DHT22;1320;48.128;11.592;2023-04-28T14:21:42;17.10;99.90
2621;DHT22;1320;48.128;11.592;2023-04-28T14:24:08;17.20;99.90
2621;DHT22;1320;48.128;11.592;2023-04-28T14:26:35;17.20;99.90
2621;DHT22;1320;48.128;11.592;2023-04-28T14:29:01;17.20;99.90
2621;DHT22;1320;48.128;11.592;2023-04-28T14:31:26;17.20;99.90
2621;DHT22;1320;48.128;11.592;2023-04-28T14:33:52;17.10;99.90
2621;DHT22;1320;48.128;11.592;2023-04-28T14:36:18;17.10;99.90
2621;DHT22;1320;48.128;11.592;2023-04-28T14:38:44;17.00;99.90
2621;DHT22;1320;48.128;11.592;2023-04-28T14:41:10;17.00;99.90
2621;DHT22;1320;48.128;11.592;2023-04-28T14:43:36;17.00;99.90
2621;DHT22;1320;48.128;11.592;2023-04-28T14:46:02;17.00;99.90
2621;DHT22;1320;48.128;11.592;2023-04-28T14:48:30;16.90;99.90
2621;DHT22;1320;48.128;11.592;2023-04-28T14:50:56;16.90;99.90
2621;DHT22;1320;48.128;11.592;2023-04-28T14:53:22;16.80;99.90
2621;DHT22;1320;48.128;11.592;2023-04-28T14:55:48;16.80;99.90
2621;DHT22;1320;48.128;11.592;2023-04-28T14:58:14;16.80;99.90
2621;DHT22;1320;48.128;11.592;2023-04-28T15:00:40;16.90;99.90
2621;DHT22;1320;48.128;11.592;2023-04-28T15:03:06;16.90;99.90
2621;DHT22;1320;48.128;11.592;2023-04-28T15:05:32;16.90;99.90
2621;DHT22;1320;48.128;11.592;2023-04-28T15:07:58;17.00;99.90
2621;DHT22;1320;48.128;11.592;2023-04-28T15:10:23;17.00;99.90
2621;DHT22;1320;48.128;11.592;2023-04-28T15:12:50;17.00;99.90
2621;DHT22;1320;48.128;11.592;2023-04-28T15:15:16;16.90;99.90
2621;DHT22;1320;48.128;11.592;2023-04-28T15:17:42;16.90;99.90
2621;DHT22;1320;48.128;11.592;2023-04-28T15:20:09;16.80;99.90
2621;DHT22;1320;48.128;11.592;2023-04-28T15:22:35;16.80;99.90
2621;DHT22;1320;48.128;11.592;2023-04-28T15:25:01;16.70;99.90
2621;DHT22;1320;48.128;11.592;2023-04-28T15:27:27;16.70;99.90
2621;DHT22;1320;48.128;11.592;2023-04-28T15:29:53;16.60;99.90
2621;DHT22;1320;48.128;11.592;2023-04-28T15:32:18;16.60;99.90
2621;DHT22;1320;48.128;11.592;2023-04-28T15:34:44;16.60;99.90
2621;DHT22;1320;48.128;11.592;2023-04-28T15:40:04;16.50;99.90
2621;DHT22;1320;48.128;11.592;2023-04-28T15:42:31;16.40;99.90
2621;DHT22;1320;48.128;11.592;2023-04-28T15:44:57;16.30;99.90
2621;DHT22;1320;48.128;11.592;2023-04-28T15:47:23;16.20;99.90
2621;DHT22;1320;48.128;11.592;2023-04-28T15:49:49;16.20;99.90
2621;DHT22;1320;48.128;11.592;2023-04-28T15:52:15;16.20;99.90
2621;DHT22;1320;48.128;11.592;2023-04-28T15:54:41;16.20;99.90
2621;DHT22;1320;48.128;11.592;2023-04-28T15:57:07;16.10;99.90
2621;DHT22;1320;48.128;11.592;2023-04-28T15:59:33;16.20;99.90
2621;DHT22;1320;48.128;11.592;2023-04-28T16:02:00;16.10;99.90
2621;DHT22;1320;48.128;11.592;2023-04-28T16:04:26;16.10;99.90
2621;DHT22;1320;48.128;11.592;2023-04-28T16:06:53;16.10;99.90
2621;DHT22;1320;48.128;11.592;2023-04-28T16:09:19;16.10;99.90
2621;DHT22;1320;48.128;11.592;2023-04-28T16:11:45;16.10;99.90
2621;DHT22;1320;48.128;11.592;2023-04-28T16:14:11;16.10;99.90